CDT,Max TemperatureF,Mean TemperatureF,Min TemperatureF,Max Dew PointF,MeanDew PointF,Min DewpointF,Max Humidity, Mean Humidity, Min Humidity, Max Sea Level PressureIn, Mean Sea Level PressureIn, Min Sea Level PressureIn, Max VisibilityMiles, Mean VisibilityMiles, Min VisibilityMiles, Max Wind SpeedMPH, Mean Wind SpeedMPH, Max Gust SpeedMPH,PrecipitationIn, CloudCover, Events, WindDirDegrees
2013-8-1,72,60,48,57,51,46,97,73,40,29.97,29.94,29.88,10,10,10,13,5,24,0.00,3,,288
2013-8-2,71,58,46,58,51,46,100,75,43,30.03,29.91,29.85,10,9,0,14,4,22,0.00,3,Fog-Rain,321
2013-8-3,69,55,41,53,47,42,100,75,45,30.21,30.11,30.02,10,10,1,18,3,22,0.00,2,,323
2013-8-4,69,53,37,52,44,37,100,71,38,30.27,30.20,30.11,10,8,0,8,1,,0.00,3,Fog,290
2013-8-5,64,54,44,63,55,44,99,96,89,30.10,29.96,29.85,10,8,1,9,1,,0.00,6,Rain,181
2013-8-6,75,68,60,63,60,54,99,80,48,29.87,29.81,29.76,10,9,5,10,4,,0.00,6,Rain,220
2013-8-7,67,56,44,60,52,41,99,80,39,30.04,29.90,29.73,10,10,3,12,3,20,0.00,4,Rain,334
2013-8-8,71,54,38,58,50,38,100,84,44,30.07,30.04,30.00,10,8,0,10,1,16,0.00,5,Fog-Rain,263
2013-8-9,68,56,44,57,49,44,100,77,46,30.11,30.02,29.96,10,9,0,14,3,22,0.00,5,Fog,300
2013-8-10,70,54,39,55,48,39,100,78,47,30.18,30.15,30.11,10,8,0,7,1,,0.00,4,Fog,306
2013-8-11,73,56,40,57,49,40,100,78,42,30.14,30.09,30.04,10,9,0,7,1,,0.00,3,Fog,292
2013-8-12,73,56,39,57,50,39,99,75,46,30.10,30.02,29.97,10,10,1,15,4,22,0.00,3,Rain,337
2013-8-13,62,48,35,51,42,36,100,79,43,30.21,30.16,30.09,10,8,0,12,3,20,0.00,4,Fog,349
2013-8-14,68,50,33,52,42,34,100,77,39,30.24,30.19,30.13,10,8,0,10,2,,0.00,5,Fog,294
2013-8-15,75,56,38,55,46,38,99,71,36,30.15,30.12,30.10,10,10,4,12,2,17,0.00,2,,315
2013-8-16,78,58,38,60,48,39,100,72,29,30.21,30.18,30.15,10,8,1,6,1,,0.00,1,,243
2013-8-17,79,61,44,59,51,44,100,72,37,30.26,30.21,30.16,10,8,0,10,2,16,0.00,1,Fog,236
2013-8-18,79,62,45,57,51,45,100,73,38,30.22,30.15,30.07,10,9,1,12,2,20,0.00,0,,224
2013-8-19,81,65,49,63,58,49,100,78,54,30.08,30.01,29.97,10,8,2,16,4,23,0.00,1,,225
2013-8-20,85,70,55,66,63,55,100,75,50,30.03,29.99,29.94,10,8,0,15,3,23,0.00,2,Fog,206
2013-8-21,86,70,55,70,66,55,100,81,53,30.06,29.96,29.90,10,8,0,13,6,20,0.47,2,Fog-Rain-Thunderstorm,226
2013-8-22,75,60,46,60,51,45,100,72,34,30.21,30.14,30.05,10,9,1,9,2,,0.02,1,,359
2013-8-23,78,59,40,59,50,40,100,72,38,30.25,30.20,30.15,10,9,1,8,2,,0.00,1,,172
2013-8-24,81,68,56,64,57,53,96,67,47,30.25,30.17,30.07,10,10,10,15,5,24,0.00,2,,188
2013-8-25,92,81,70,71,68,65,87,68,44,30.09,30.04,29.99,10,10,10,13,8,22,0.00,2,Rain-Thunderstorm,223
2013-8-26,85,74,65,74,68,64,97,84,59,30.07,30.02,29.97,10,9,3,22,5,33,0.19,4,Rain-Thunderstorm,260
2013-8-27,82,73,63,72,69,63,98,89,70,29.98,29.92,29.89,10,9,1,12,2,,0.00,5,Rain-Thunderstorm,64
2013-8-28,84,72,61,70,64,59,100,82,43,30.11,30.06,29.96,10,6,0,6,1,,0.00,3,Fog,93
2013-8-29,81,71,61,71,65,61,99,86,58,30.12,30.05,29.90,10,8,3,15,3,22,0.00,3,Rain-Thunderstorm,199
2013-8-30,74,66,56,70,63,56,98,85,63,29.99,29.93,29.83,10,9,4,17,8,23,0.01,6,Rain-Thunderstorm,351
2013-8-31,80,64,49,65,58,50,100,81,43,29.97,29.90,29.81,10,7,0,8,1,,0.00,2,Fog,229